Ventura — ZCDT2 — position and weather

sailwx.info

Track history (hours):
 
Tides and Currents Weather Stations Pressure Air Temp Water Temp Dewpoint Dewpoint Depression Visibility Wind Speed Wind Dir Waves Ship Positions

Ventura

Last reported at 2016-Sep-30 22:20 UTC. Time now 2016-Sep-30 23:46 UTC.
Position N 50°08' W 002°18'.

Length 288 m; draft 8.6 m.

Type: Passenger vessel. MMSI: 310562000.

Date/timePositionNaut miles runAvg speedWind from/ knotsBaromVisibWave heightAir tempDewpointWater temp
2016-Sep-30 22:20N 50°08' W 002°18'6112.7
2016-Sep-30 17:33N 50°43' W 001°00'1312.6
2016-Sep-30 16:33N 50°49' W 001°18'6 3.0
2016-Sep-30 14:32N 50°53' W 001°24'0 0.0
2016-Sep-30 13:32N 50°53' W 001°24'0 0.0
2016-Sep-30 10:32N 50°53' W 001°24'0 0.0
2016-Sep-30 08:32N 50°53' W 001°24'0 0.0
2016-Sep-30 06:32N 50°53' W 001°24'14 4.6
2016-Sep-30 03:34N 50°45' W 001°07'1010.2
2016-Sep-30 02:33N 50°36' W 001°01'7514.9
2016-Sep-29 21:31N 49°53' W 002°37'2119.0
2016-Sep-29 20:26N 49°44' W 003°06'7519.2
2016-Sep-29 16:33N 48°59' W 004°37'2020.1
2016-Sep-29 15:33N 48°47' W 005°01'2020.2
2016-Sep-29 14:33N 48°32' W 005°22'12020.0
2016-Sep-29 08:33N 46°49' W 006°52'22419.6
2016-Sep-28 21:06N 43°34' W 009°30'3618.1
2016-Sep-28 19:07N 43°00' W 009°48'145 7.4
2016-Sep-27 23:33N 40°37' W 010°13'8119.3
2016-Sep-27 19:21N 39°28' W 011°09'40719.1
2016-Sep-26 22:00N 33°42' W 015°36'246 9.8 040 / 301021.610.8 1.523.518.122.5
2016-Sep-25 21:00N 29°54' W 017°24'79 3.8 040 / 281020.810.8 1.023.120.023.9
2016-Sep-25 00:21N 28°43' W 016°45'1813.5
2016-Sep-24 23:00N 28°42' W 016°24'1 1.6 040 / 151022.010.8 0.522.518.623.0
2016-Sep-24 22:23N 28°43' W 016°24'8 9.3
2016-Sep-24 21:33N 28°43' W 016°15'14 7.1
2016-Sep-24 19:33N 28°33' W 016°03'8 7.6
2016-Sep-24 18:33N 28°29' W 016°10'4 3.6
2016-Sep-24 17:32N 28°28' W 016°14'0 0.0
2016-Sep-24 16:32N 28°28' W 016°14'0 0.0
2016-Sep-24 14:20N 28°28' W 016°14'0 0.0
2016-Sep-24 12:23N 28°28' W 016°14'0 0.0
2016-Sep-24 10:27N 28°28' W 016°14'0 0.0
2016-Sep-24 09:26N 28°28' W 016°14'24 4.2
2016-Sep-24 03:33N 28°35' W 015°48'1111.2
2016-Sep-24 02:33N 28°39' W 015°36'1211.8
2016-Sep-24 01:33N 28°40' W 015°22'1111.4
2016-Sep-24 00:33N 28°41' W 015°09'2415.3
2016-Sep-23 23:00N 28°42' W 014°42'32 9.3 040 / 281021.710.8 1.522.017.223.5
2016-Sep-23 19:33N 28°48' W 014°06'2311.6
2016-Sep-23 17:33N 28°50' W 013°40'4 7.5
2016-Sep-23 17:00N 28°48' W 013°36'1023.4 010 / 211020.310.8 1.523.416.223.0
2016-Sep-23 16:33N 28°58' W 013°32'0 0.1
2016-Sep-23 15:32N 28°58' W 013°32'0 0.0
2016-Sep-23 13:20N 28°58' W 013°32'0 0.0
2016-Sep-23 09:23N 28°58' W 013°32'6 2.2
2016-Sep-23 06:33N 29°00' W 013°25'3114.1
2016-Sep-23 04:20N 29°27' W 013°07'1615.7
2016-Sep-23 03:17N 29°43' W 013°01'28516.5
2016-Sep-22 10:00N 34°12' W 011°12'16717.1 040 / 41012.8 2.2 0.523.3
2016-Sep-22 00:14N 36°51' W 010°09'1417.1
2016-Sep-21 23:24N 37°04' W 010°03'1125.3
2016-Sep-21 23:00N 37°12' W 009°54'5816.8 010 / 271018.710.8 2.017.013.516.5
2016-Sep-21 19:33N 38°08' W 009°35'34 2.4
2016-Sep-21 05:33N 38°39' W 009°19'19 9.4
2016-Sep-21 03:33N 38°44' W 009°43'1414.0
2016-Sep-21 02:33N 38°58' W 009°43'  
Track history (hours):
 
Tides and Currents Weather Stations Pressure Air Temp Water Temp Dewpoint Dewpoint Depression Visibility Wind Speed Wind Dir Waves Ship Positions

Ventura

Last reported at 2016-Sep-30 22:20 UTC. Time now 2016-Sep-30 23:46 UTC.
Position N 50°08' W 002°18'.

Length 288 m; draft 8.6 m.

Type: Passenger vessel. MMSI: 310562000.

Date/timePositionNaut miles runAvg speedWind from/ knotsBaromVisibWave heightAir tempDewpointWater temp
2016-Sep-30 22:20N 50°08' W 002°18'6112.7
2016-Sep-30 17:33N 50°43' W 001°00'1312.6
2016-Sep-30 16:33N 50°49' W 001°18'6 3.0
2016-Sep-30 14:32N 50°53' W 001°24'0 0.0
2016-Sep-30 13:32N 50°53' W 001°24'0 0.0
2016-Sep-30 10:32N 50°53' W 001°24'0 0.0
2016-Sep-30 08:32N 50°53' W 001°24'0 0.0
2016-Sep-30 06:32N 50°53' W 001°24'14 4.6
2016-Sep-30 03:34N 50°45' W 001°07'1010.2
2016-Sep-30 02:33N 50°36' W 001°01'7514.9
2016-Sep-29 21:31N 49°53' W 002°37'2119.0
2016-Sep-29 20:26N 49°44' W 003°06'7519.2
2016-Sep-29 16:33N 48°59' W 004°37'2020.1
2016-Sep-29 15:33N 48°47' W 005°01'2020.2
2016-Sep-29 14:33N 48°32' W 005°22'12020.0
2016-Sep-29 08:33N 46°49' W 006°52'22419.6
2016-Sep-28 21:06N 43°34' W 009°30'3618.1
2016-Sep-28 19:07N 43°00' W 009°48'145 7.4
2016-Sep-27 23:33N 40°37' W 010°13'8119.3
2016-Sep-27 19:21N 39°28' W 011°09'40719.1
2016-Sep-26 22:00N 33°42' W 015°36'246 9.8 040 / 301021.610.8 1.523.518.122.5
2016-Sep-25 21:00N 29°54' W 017°24'79 3.8 040 / 281020.810.8 1.023.120.023.9
2016-Sep-25 00:21N 28°43' W 016°45'1813.5
2016-Sep-24 23:00N 28°42' W 016°24'1 1.6 040 / 151022.010.8 0.522.518.623.0
2016-Sep-24 22:23N 28°43' W 016°24'8 9.3
2016-Sep-24 21:33N 28°43' W 016°15'14 7.1
2016-Sep-24 19:33N 28°33' W 016°03'8 7.6
2016-Sep-24 18:33N 28°29' W 016°10'4 3.6
2016-Sep-24 17:32N 28°28' W 016°14'0 0.0
2016-Sep-24 16:32N 28°28' W 016°14'0 0.0
2016-Sep-24 14:20N 28°28' W 016°14'0 0.0
2016-Sep-24 12:23N 28°28' W 016°14'0 0.0
2016-Sep-24 10:27N 28°28' W 016°14'0 0.0
2016-Sep-24 09:26N 28°28' W 016°14'24 4.2
2016-Sep-24 03:33N 28°35' W 015°48'1111.2
2016-Sep-24 02:33N 28°39' W 015°36'1211.8
2016-Sep-24 01:33N 28°40' W 015°22'1111.4
2016-Sep-24 00:33N 28°41' W 015°09'2415.3
2016-Sep-23 23:00N 28°42' W 014°42'32 9.3 040 / 281021.710.8 1.522.017.223.5
2016-Sep-23 19:33N 28°48' W 014°06'2311.6
2016-Sep-23 17:33N 28°50' W 013°40'4 7.5
2016-Sep-23 17:00N 28°48' W 013°36'1023.4 010 / 211020.310.8 1.523.416.223.0
2016-Sep-23 16:33N 28°58' W 013°32'0 0.1
2016-Sep-23 15:32N 28°58' W 013°32'0 0.0
2016-Sep-23 13:20N 28°58' W 013°32'0 0.0
2016-Sep-23 09:23N 28°58' W 013°32'6 2.2
2016-Sep-23 06:33N 29°00' W 013°25'3114.1
2016-Sep-23 04:20N 29°27' W 013°07'1615.7
2016-Sep-23 03:17N 29°43' W 013°01'28516.5
2016-Sep-22 10:00N 34°12' W 011°12'16717.1 040 / 41012.8 2.2 0.523.3
2016-Sep-22 00:14N 36°51' W 010°09'1417.1
2016-Sep-21 23:24N 37°04' W 010°03'1125.3
2016-Sep-21 23:00N 37°12' W 009°54'5816.8 010 / 271018.710.8 2.017.013.516.5
2016-Sep-21 19:33N 38°08' W 009°35'34 2.4
2016-Sep-21 05:33N 38°39' W 009°19'19 9.4
2016-Sep-21 03:33N 38°44' W 009°43'1414.0
2016-Sep-21 02:33N 38°58' W 009°43'  

Dump ship's entire track history